sensor_id;sensor_type;location;lat;lon;timestamp;pressure;altitude;pressure_sealevel;temperature;humidity
73024;BME280;61199;47.526;8.538;2023-05-10T00:01:54;96052.31;;;14.05;81.09
73024;BME280;61199;47.526;8.538;2023-05-10T00:04:20;96054.47;;;14.09;80.76
73024;BME280;61199;47.526;8.538;2023-05-10T00:06:47;96051.88;;;14.25;79.49
73024;BME280;61199;47.526;8.538;2023-05-10T00:09:14;96057.78;;;14.43;79.45
73024;BME280;61199;47.526;8.538;2023-05-10T00:11:40;96055.84;;;14.21;80.05
73024;BME280;61199;47.526;8.538;2023-05-10T00:14:06;96053.34;;;14.20;78.43
73024;BME280;61199;47.526;8.538;2023-05-10T00:16:33;96055.34;;;14.34;78.56
73024;BME280;61199;47.526;8.538;2023-05-10T00:18:59;96060.72;;;14.16;79.42
73024;BME280;61199;47.526;8.538;2023-05-10T00:21:26;96061.25;;;14.28;79.30
73024;BME280;61199;47.526;8.538;2023-05-10T00:23:54;96063.84;;;13.96;79.92
73024;BME280;61199;47.526;8.538;2023-05-10T00:26:20;96061.06;;;14.05;79.85
73024;BME280;61199;47.526;8.538;2023-05-10T00:28:47;96060.22;;;14.13;79.71
73024;BME280;61199;47.526;8.538;2023-05-10T00:31:13;96065.31;;;13.82;80.28
73024;BME280;61199;47.526;8.538;2023-05-10T00:33:40;96067.94;;;13.82;80.35
73024;BME280;61199;47.526;8.538;2023-05-10T00:36:07;96071.44;;;13.91;80.10
73024;BME280;61199;47.526;8.538;2023-05-10T00:38:33;96062.38;;;13.93;80.59
73024;BME280;61199;47.526;8.538;2023-05-10T00:41:00;96060.91;;;13.91;80.41
73024;BME280;61199;47.526;8.538;2023-05-10T00:43:26;96067.47;;;13.95;80.11
73024;BME280;61199;47.526;8.538;2023-05-10T00:45:53;96070.09;;;13.87;80.42
73024;BME280;61199;47.526;8.538;2023-05-10T00:48:19;96070.13;;;14.11;80.16
73024;BME280;61199;47.526;8.538;2023-05-10T00:50:46;96071.25;;;14.00;79.86
73024;BME280;61199;47.526;8.538;2023-05-10T00:53:14;96082.78;;;14.07;79.49
73024;BME280;61199;47.526;8.538;2023-05-10T00:55:41;96081.63;;;14.02;79.41
73024;BME280;61199;47.526;8.538;2023-05-10T00:58:07;96086.25;;;14.00;79.96
73024;BME280;61199;47.526;8.538;2023-05-10T01:00:35;96077.53;;;14.15;79.46
73024;BME280;61199;47.526;8.538;2023-05-10T01:03:02;96073.41;;;14.13;79.95
73024;BME280;61199;47.526;8.538;2023-05-10T01:05:29;96075.88;;;14.06;80.07
73024;BME280;61199;47.526;8.538;2023-05-10T01:07:56;96067.81;;;14.08;79.79
73024;BME280;61199;47.526;8.538;2023-05-10T01:10:22;96072.75;;;14.11;79.01
73024;BME280;61199;47.526;8.538;2023-05-10T01:12:49;96078.66;;;14.05;79.34
73024;BME280;61199;47.526;8.538;2023-05-10T01:15:16;96088.72;;;14.01;79.34
73024;BME280;61199;47.526;8.538;2023-05-10T01:17:44;96084.59;;;13.99;79.49
73024;BME280;61199;47.526;8.538;2023-05-10T01:20:12;96081.31;;;13.97;79.58
73024;BME280;61199;47.526;8.538;2023-05-10T01:23:05;96084.09;;;13.95;79.54
73024;BME280;61199;47.526;8.538;2023-05-10T01:31:08;96088.25;;;14.30;78.93
73024;BME280;61199;47.526;8.538;2023-05-10T01:33:57;96084.63;;;14.31;78.43
73024;BME280;61199;47.526;8.538;2023-05-10T01:36:30;96084.94;;;14.12;78.21
73024;BME280;61199;47.526;8.538;2023-05-10T01:39:24;96092.50;;;14.15;78.81
73024;BME280;61199;47.526;8.538;2023-05-10T01:42:03;96092.03;;;14.03;78.49
73024;BME280;61199;47.526;8.538;2023-05-10T01:44:35;96086.72;;;13.87;79.79
73024;BME280;61199;47.526;8.538;2023-05-10T01:47:11;96083.63;;;14.08;79.63
73024;BME280;61199;47.526;8.538;2023-05-10T01:49:46;96087.06;;;14.16;78.82
73024;BME280;61199;47.526;8.538;2023-05-10T01:52:17;96087.94;;;14.25;78.12
73024;BME280;61199;47.526;8.538;2023-05-10T01:54:51;96095.16;;;14.31;77.89
73024;BME280;61199;47.526;8.538;2023-05-10T01:57:20;96086.91;;;14.42;77.55
73024;BME280;61199;47.526;8.538;2023-05-10T01:59:50;96100.94;;;14.34;77.91
73024;BME280;61199;47.526;8.538;2023-05-10T02:02:18;96103.06;;;14.39;77.75
73024;BME280;61199;47.526;8.538;2023-05-10T02:04:47;96099.09;;;14.67;77.13
73024;BME280;61199;47.526;8.538;2023-05-10T02:07:14;96098.09;;;14.68;76.73
73024;BME280;61199;47.526;8.538;2023-05-10T02:09:41;96089.56;;;14.50;76.34
73024;BME280;61199;47.526;8.538;2023-05-10T02:12:12;96097.31;;;14.43;77.30
73024;BME280;61199;47.526;8.538;2023-05-10T02:14:41;96095.16;;;14.39;77.91
73024;BME280;61199;47.526;8.538;2023-05-10T02:17:09;96094.50;;;14.45;77.60
73024;BME280;61199;47.526;8.538;2023-05-10T02:19:38;96101.78;;;14.43;77.17
73024;BME280;61199;47.526;8.538;2023-05-10T02:22:05;96101.59;;;14.52;77.76
73024;BME280;61199;47.526;8.538;2023-05-10T02:24:33;96103.56;;;14.50;77.76
73024;BME280;61199;47.526;8.538;2023-05-10T02:27:02;96099.28;;;14.57;77.83
73024;BME280;61199;47.526;8.538;2023-05-10T02:29:31;96092.19;;;14.42;78.20
73024;BME280;61199;47.526;8.538;2023-05-10T02:31:58;96097.16;;;14.37;79.04
73024;BME280;61199;47.526;8.538;2023-05-10T02:34:27;96089.75;;;14.48;79.05
73024;BME280;61199;47.526;8.538;2023-05-10T02:36:54;96098.09;;;14.68;78.44
73024;BME280;61199;47.526;8.538;2023-05-10T02:39:22;96093.81;;;14.74;77.76
73024;BME280;61199;47.526;8.538;2023-05-10T02:41:50;96098.78;;;14.62;78.43
73024;BME280;61199;47.526;8.538;2023-05-10T02:44:19;96094.19;;;14.48;79.03
73024;BME280;61199;47.526;8.538;2023-05-10T02:46:46;96102.41;;;14.53;79.77
73024;BME280;61199;47.526;8.538;2023-05-10T02:49:13;96096.16;;;14.62;79.21
73024;BME280;61199;47.526;8.538;2023-05-10T02:51:54;96098.56;;;14.79;78.80
73024;BME280;61199;47.526;8.538;2023-05-10T02:54:26;96093.97;;;14.73;78.15
73024;BME280;61199;47.526;8.538;2023-05-10T02:56:56;96090.44;;;14.96;78.09
73024;BME280;61199;47.526;8.538;2023-05-10T02:59:23;96096.41;;;14.90;77.59
73024;BME280;61199;47.526;8.538;2023-05-10T03:01:49;96092.03;;;14.67;78.94
73024;BME280;61199;47.526;8.538;2023-05-10T03:04:16;96084.09;;;14.75;79.43
73024;BME280;61199;47.526;8.538;2023-05-10T03:06:43;96092.81;;;14.68;78.65
73024;BME280;61199;47.526;8.538;2023-05-10T03:09:10;96090.00;;;14.85;77.83
73024;BME280;61199;47.526;8.538;2023-05-10T03:12:16;96090.88;;;14.70;78.25
73024;BME280;61199;47.526;8.538;2023-05-10T03:14:49;96092.19;;;14.58;77.43
73024;BME280;61199;47.526;8.538;2023-05-10T03:17:45;96090.53;;;14.57;77.80
73024;BME280;61199;47.526;8.538;2023-05-10T03:20:21;96097.81;;;14.47;78.20
73024;BME280;61199;47.526;8.538;2023-05-10T03:22:53;96112.63;;;14.48;76.57
73024;BME280;61199;47.526;8.538;2023-05-10T03:25:22;96101.09;;;14.17;77.48
73024;BME280;61199;47.526;8.538;2023-05-10T03:27:49;96101.38;;;14.14;78.37
73024;BME280;61199;47.526;8.538;2023-05-10T03:30:16;96110.94;;;13.91;78.60
73024;BME280;61199;47.526;8.538;2023-05-10T03:32:43;96110.28;;;13.89;78.71
73024;BME280;61199;47.526;8.538;2023-05-10T03:35:11;96114.84;;;13.87;78.73
73024;BME280;61199;47.526;8.538;2023-05-10T03:37:38;96119.78;;;13.82;78.91
73024;BME280;61199;47.526;8.538;2023-05-10T03:40:07;96106.00;;;13.88;78.97
73024;BME280;61199;47.526;8.538;2023-05-10T03:42:33;96108.47;;;13.97;78.67
73024;BME280;61199;47.526;8.538;2023-05-10T03:45:00;96114.56;;;13.98;78.42
73024;BME280;61199;47.526;8.538;2023-05-10T03:47:26;96117.47;;;13.87;78.71
73024;BME280;61199;47.526;8.538;2023-05-10T03:49:53;96115.00;;;13.77;79.41
73024;BME280;61199;47.526;8.538;2023-05-10T03:52:19;96126.72;;;13.83;79.42
73024;BME280;61199;47.526;8.538;2023-05-10T03:54:45;96124.06;;;13.75;79.92
73024;BME280;61199;47.526;8.538;2023-05-10T03:57:12;96123.72;;;13.78;79.88
73024;BME280;61199;47.526;8.538;2023-05-10T03:59:38;96120.31;;;13.85;79.37
73024;BME280;61199;47.526;8.538;2023-05-10T04:02:05;96117.81;;;13.84;79.04
73024;BME280;61199;47.526;8.538;2023-05-10T04:04:32;96117.13;;;13.74;79.48
73024;BME280;61199;47.526;8.538;2023-05-10T04:06:58;96126.16;;;13.63;79.48
73024;BME280;61199;47.526;8.538;2023-05-10T04:09:24;96121.09;;;13.70;79.94
73024;BME280;61199;47.526;8.538;2023-05-10T04:11:51;96119.09;;;13.64;79.57
73024;BME280;61199;47.526;8.538;2023-05-10T04:14:17;96120.41;;;13.68;79.81
73024;BME280;61199;47.526;8.538;2023-05-10T04:16:44;96127.28;;;13.53;79.72
73024;BME280;61199;47.526;8.538;2023-05-10T04:19:11;96122.03;;;13.53;80.28
73024;BME280;61199;47.526;8.538;2023-05-10T04:21:37;96118.59;;;13.60;80.87
73024;BME280;61199;47.526;8.538;2023-05-10T04:24:04;96116.28;;;13.57;80.99
73024;BME280;61199;47.526;8.538;2023-05-10T04:26:30;96119.06;;;13.56;80.70
73024;BME280;61199;47.526;8.538;2023-05-10T04:28:57;96117.91;;;13.50;80.70
73024;BME280;61199;47.526;8.538;2023-05-10T04:31:23;96124.50;;;13.62;80.74
73024;BME280;61199;47.526;8.538;2023-05-10T04:33:50;96118.25;;;13.63;80.55
73024;BME280;61199;47.526;8.538;2023-05-10T04:36:16;96127.66;;;13.66;80.74
73024;BME280;61199;47.526;8.538;2023-05-10T04:38:42;96127.00;;;13.72;80.50
73024;BME280;61199;47.526;8.538;2023-05-10T04:41:10;96127.00;;;13.64;80.03
73024;BME280;61199;47.526;8.538;2023-05-10T04:43:37;96137.50;;;13.64;80.35
73024;BME280;61199;47.526;8.538;2023-05-10T04:46:05;96137.84;;;13.69;79.30
73024;BME280;61199;47.526;8.538;2023-05-10T04:48:32;96133.25;;;13.71;79.70
73024;BME280;61199;47.526;8.538;2023-05-10T04:50:58;96133.06;;;13.64;79.62
73024;BME280;61199;47.526;8.538;2023-05-10T04:53:25;96136.19;;;13.68;79.96
73024;BME280;61199;47.526;8.538;2023-05-10T04:55:51;96146.06;;;13.66;79.18
73024;BME280;61199;47.526;8.538;2023-05-10T04:58:17;96146.06;;;13.66;79.23
73024;BME280;61199;47.526;8.538;2023-05-10T05:00:44;96143.44;;;13.66;79.10
73024;BME280;61199;47.526;8.538;2023-05-10T05:03:10;96145.56;;;13.62;79.19
73024;BME280;61199;47.526;8.538;2023-05-10T05:05:37;96149.69;;;13.65;79.62
73024;BME280;61199;47.526;8.538;2023-05-10T05:08:03;96146.84;;;13.50;79.30
73024;BME280;61199;47.526;8.538;2023-05-10T05:10:30;96161.47;;;13.45;80.11
73024;BME280;61199;47.526;8.538;2023-05-10T05:12:56;96147.50;;;13.52;79.55
73024;BME280;61199;47.526;8.538;2023-05-10T05:15:23;96159.00;;;13.51;79.39
73024;BME280;61199;47.526;8.538;2023-05-10T05:17:49;96159.63;;;13.45;80.04
73024;BME280;61199;47.526;8.538;2023-05-10T05:20:15;96160.00;;;13.50;78.66
73024;BME280;61199;47.526;8.538;2023-05-10T05:22:43;96166.00;;;13.27;79.63
73024;BME280;61199;47.526;8.538;2023-05-10T05:25:09;96170.31;;;13.36;80.14
73024;BME280;61199;47.526;8.538;2023-05-10T05:27:35;96166.69;;;13.37;79.30
73024;BME280;61199;47.526;8.538;2023-05-10T05:30:02;96174.09;;;13.41;78.81
73024;BME280;61199;47.526;8.538;2023-05-10T05:32:28;96173.31;;;13.49;78.92
73024;BME280;61199;47.526;8.538;2023-05-10T05:34:55;96179.44;;;13.57;78.66
73024;BME280;61199;47.526;8.538;2023-05-10T05:37:22;96182.41;;;13.62;78.87
73024;BME280;61199;47.526;8.538;2023-05-10T05:39:48;96179.63;;;13.64;78.63
73024;BME280;61199;47.526;8.538;2023-05-10T05:42:15;96184.38;;;13.60;79.15
73024;BME280;61199;47.526;8.538;2023-05-10T05:44:42;96178.78;;;13.63;79.61
73024;BME280;61199;47.526;8.538;2023-05-10T05:47:09;96184.59;;;13.75;78.70
73024;BME280;61199;47.526;8.538;2023-05-10T05:49:35;96182.97;;;13.82;78.53
73024;BME280;61199;47.526;8.538;2023-05-10T05:52:03;96180.19;;;13.83;78.46
73024;BME280;61199;47.526;8.538;2023-05-10T05:54:30;96193.22;;;13.93;77.59
73024;BME280;61199;47.526;8.538;2023-05-10T05:56:58;96184.03;;;13.55;77.97
73024;BME280;61199;47.526;8.538;2023-05-10T05:59:26;96179.31;;;13.67;78.92
73024;BME280;61199;47.526;8.538;2023-05-10T06:01:53;96186.78;;;13.46;79.32
73024;BME280;61199;47.526;8.538;2023-05-10T06:04:19;96191.06;;;13.47;78.84
73024;BME280;61199;47.526;8.538;2023-05-10T06:06:46;96187.84;;;13.61;78.90
73024;BME280;61199;47.526;8.538;2023-05-10T06:09:12;96195.75;;;13.61;77.84
73024;BME280;61199;47.526;8.538;2023-05-10T06:11:39;96189.75;;;13.51;78.19
73024;BME280;61199;47.526;8.538;2023-05-10T06:14:05;96199.31;;;13.52;78.11
73024;BME280;61199;47.526;8.538;2023-05-10T06:16:34;96196.63;;;13.36;78.33
73024;BME280;61199;47.526;8.538;2023-05-10T06:19:02;96199.63;;;13.49;78.58
73024;BME280;61199;47.526;8.538;2023-05-10T06:21:28;96207.19;;;13.44;77.62
73024;BME280;61199;47.526;8.538;2023-05-10T06:23:55;96219.06;;;13.56;77.67
73024;BME280;61199;47.526;8.538;2023-05-10T06:26:21;96210.56;;;13.28;77.96
73024;BME280;61199;47.526;8.538;2023-05-10T06:28:47;96221.81;;;13.46;77.52
73024;BME280;61199;47.526;8.538;2023-05-10T06:31:14;96217.75;;;13.52;77.51
73024;BME280;61199;47.526;8.538;2023-05-10T06:33:40;96222.38;;;13.58;76.88
73024;BME280;61199;47.526;8.538;2023-05-10T06:36:07;96226.19;;;13.71;76.24
73024;BME280;61199;47.526;8.538;2023-05-10T06:38:33;96232.59;;;13.61;76.57
73024;BME280;61199;47.526;8.538;2023-05-10T06:40:59;96229.03;;;13.78;76.20
73024;BME280;61199;47.526;8.538;2023-05-10T06:43:26;96228.91;;;13.87;75.14
73024;BME280;61199;47.526;8.538;2023-05-10T06:45:54;96223.66;;;13.95;75.00
73024;BME280;61199;47.526;8.538;2023-05-10T06:48:21;96229.03;;;13.70;75.44
73024;BME280;61199;47.526;8.538;2023-05-10T06:50:47;96225.34;;;13.63;75.99
73024;BME280;61199;47.526;8.538;2023-05-10T06:53:13;96229.03;;;13.78;76.15
73024;BME280;61199;47.526;8.538;2023-05-10T06:55:40;96217.53;;;13.87;75.73
73024;BME280;61199;47.526;8.538;2023-05-10T06:58:06;96222.06;;;14.02;74.94
73024;BME280;61199;47.526;8.538;2023-05-10T07:00:32;96228.06;;;13.87;74.73
73024;BME280;61199;47.526;8.538;2023-05-10T07:02:59;96230.16;;;13.67;75.18
73024;BME280;61199;47.526;8.538;2023-05-10T07:05:25;96228.50;;;13.33;75.77
73024;BME280;61199;47.526;8.538;2023-05-10T07:07:54;96232.84;;;13.42;76.47
73024;BME280;61199;47.526;8.538;2023-05-10T07:10:20;96235.09;;;13.37;76.78
73024;BME280;61199;47.526;8.538;2023-05-10T07:12:47;96239.00;;;13.58;76.24
73024;BME280;61199;47.526;8.538;2023-05-10T07:15:13;96238.56;;;13.45;75.68
73024;BME280;61199;47.526;8.538;2023-05-10T07:17:40;96250.03;;;13.11;75.67
73024;BME280;61199;47.526;8.538;2023-05-10T07:20:10;96247.88;;;13.06;76.96
73024;BME280;61199;47.526;8.538;2023-05-10T07:22:37;96245.38;;;13.05;77.25
73024;BME280;61199;47.526;8.538;2023-05-10T07:25:03;96249.72;;;13.14;76.97
73024;BME280;61199;47.526;8.538;2023-05-10T07:27:30;96254.03;;;13.15;77.17
73024;BME280;61199;47.526;8.538;2023-05-10T07:29:56;96248.72;;;13.32;77.06
73024;BME280;61199;47.526;8.538;2023-05-10T07:32:23;96259.50;;;13.21;76.78
73024;BME280;61199;47.526;8.538;2023-05-10T07:34:50;96261.47;;;13.19;77.01
73024;BME280;61199;47.526;8.538;2023-05-10T07:37:16;96252.72;;;13.19;77.28
73024;BME280;61199;47.526;8.538;2023-05-10T07:39:42;96262.66;;;13.07;76.75
73024;BME280;61199;47.526;8.538;2023-05-10T07:42:09;96266.44;;;13.05;78.06
73024;BME280;61199;47.526;8.538;2023-05-10T07:44:35;96264.28;;;13.26;76.91
73024;BME280;61199;47.526;8.538;2023-05-10T07:47:01;96271.41;;;13.33;76.54
73024;BME280;61199;47.526;8.538;2023-05-10T07:49:28;96258.03;;;13.01;76.19
73024;BME280;61199;47.526;8.538;2023-05-10T07:51:54;96263.44;;;13.00;76.92
73024;BME280;61199;47.526;8.538;2023-05-10T07:54:21;96262.06;;;13.13;76.75
73024;BME280;61199;47.526;8.538;2023-05-10T07:56:47;96257.59;;;13.06;75.75
73024;BME280;61199;47.526;8.538;2023-05-10T07:59:16;96254.38;;;12.94;76.70
73024;BME280;61199;47.526;8.538;2023-05-10T08:01:43;96262.59;;;13.17;76.31
73024;BME280;61199;47.526;8.538;2023-05-10T08:04:10;96270.59;;;13.33;75.02
73024;BME280;61199;47.526;8.538;2023-05-10T08:06:36;96268.50;;;13.19;74.00
73024;BME280;61199;47.526;8.538;2023-05-10T08:09:03;96270.56;;;13.07;74.59
73024;BME280;61199;47.526;8.538;2023-05-10T08:11:29;96268.19;;;13.22;75.46
73024;BME280;61199;47.526;8.538;2023-05-10T08:13:56;96262.00;;;13.31;74.71
73024;BME280;61199;47.526;8.538;2023-05-10T08:16:22;96262.72;;;13.41;74.01
73024;BME280;61199;47.526;8.538;2023-05-10T08:18:49;96255.72;;;13.49;74.30
73024;BME280;61199;47.526;8.538;2023-05-10T08:21:16;96265.13;;;13.52;74.48
73024;BME280;61199;47.526;8.538;2023-05-10T08:23:43;96261.44;;;13.45;73.18
73024;BME280;61199;47.526;8.538;2023-05-10T08:26:10;96268.59;;;13.60;73.67
73024;BME280;61199;47.526;8.538;2023-05-10T08:28:37;96266.81;;;13.61;73.31
73024;BME280;61199;47.526;8.538;2023-05-10T08:31:04;96275.22;;;13.39;71.40
73024;BME280;61199;47.526;8.538;2023-05-10T08:33:31;96268.00;;;13.41;72.89
73024;BME280;61199;47.526;8.538;2023-05-10T08:35:57;96271.69;;;13.56;70.62
73024;BME280;61199;47.526;8.538;2023-05-10T08:38:24;96263.00;;;13.63;71.57
73024;BME280;61199;47.526;8.538;2023-05-10T08:40:53;96262.25;;;13.71;71.94
73024;BME280;61199;47.526;8.538;2023-05-10T08:43:26;96263.34;;;13.60;71.51
73024;BME280;61199;47.526;8.538;2023-05-10T08:45:54;96281.84;;;13.43;72.61
73024;BME280;61199;47.526;8.538;2023-05-10T08:48:23;96278.75;;;13.81;72.66
73024;BME280;61199;47.526;8.538;2023-05-10T08:50:52;96278.69;;;13.73;71.54
73024;BME280;61199;47.526;8.538;2023-05-10T08:53:19;96278.81;;;13.63;70.77
73024;BME280;61199;47.526;8.538;2023-05-10T08:55:47;96285.94;;;13.71;70.91
73024;BME280;61199;47.526;8.538;2023-05-10T08:58:13;96287.44;;;13.81;70.22
73024;BME280;61199;47.526;8.538;2023-05-10T09:00:40;96282.09;;;13.91;71.04
73024;BME280;61199;47.526;8.538;2023-05-10T09:03:06;96284.44;;;14.02;70.12
73024;BME280;61199;47.526;8.538;2023-05-10T09:05:33;96290.25;;;14.13;70.89
73024;BME280;61199;47.526;8.538;2023-05-10T09:07:59;96281.47;;;13.97;69.27
73024;BME280;61199;47.526;8.538;2023-05-10T09:10:29;96295.28;;;13.99;69.81
73024;BME280;61199;47.526;8.538;2023-05-10T09:12:57;96288.41;;;14.14;68.80
73024;BME280;61199;47.526;8.538;2023-05-10T09:15:24;96282.53;;;14.20;67.83
73024;BME280;61199;47.526;8.538;2023-05-10T09:17:51;96278.94;;;14.21;66.59
73024;BME280;61199;47.526;8.538;2023-05-10T09:20:18;96284.56;;;14.26;67.99
73024;BME280;61199;47.526;8.538;2023-05-10T09:22:45;96293.03;;;14.12;66.78
73024;BME280;61199;47.526;8.538;2023-05-10T09:25:13;96283.81;;;14.08;66.97
73024;BME280;61199;47.526;8.538;2023-05-10T09:27:41;96289.31;;;13.89;67.85
73024;BME280;61199;47.526;8.538;2023-05-10T09:30:15;96300.03;;;13.95;66.68
73024;BME280;61199;47.526;8.538;2023-05-10T09:32:44;96291.44;;;13.85;67.58
73024;BME280;61199;47.526;8.538;2023-05-10T09:35:16;96287.03;;;13.94;67.54
73024;BME280;61199;47.526;8.538;2023-05-10T09:37:45;96281.66;;;14.03;64.72
73024;BME280;61199;47.526;8.538;2023-05-10T09:40:15;96276.50;;;13.94;65.31
73024;BME280;61199;47.526;8.538;2023-05-10T09:42:50;96293.69;;;14.06;65.12
73024;BME280;61199;47.526;8.538;2023-05-10T09:45:16;96288.16;;;13.91;64.94
73024;BME280;61199;47.526;8.538;2023-05-10T09:47:44;96287.69;;;13.88;65.53
73024;BME280;61199;47.526;8.538;2023-05-10T09:50:10;96285.25;;;14.02;65.39
73024;BME280;61199;47.526;8.538;2023-05-10T09:55:14;96286.31;;;14.17;64.90
73024;BME280;61199;47.526;8.538;2023-05-10T09:57:41;96277.56;;;14.17;64.97
73024;BME280;61199;47.526;8.538;2023-05-10T10:00:08;96277.84;;;13.98;64.27
73024;BME280;61199;47.526;8.538;2023-05-10T10:02:36;96294.44;;;13.98;64.50
73024;BME280;61199;47.526;8.538;2023-05-10T10:05:03;96277.44;;;13.85;64.67
73024;BME280;61199;47.526;8.538;2023-05-10T10:07:30;96285.41;;;14.01;65.20
73024;BME280;61199;47.526;8.538;2023-05-10T10:09:56;96282.47;;;14.12;64.98
73024;BME280;61199;47.526;8.538;2023-05-10T10:12:25;96288.13;;;14.17;65.42
73024;BME280;61199;47.526;8.538;2023-05-10T10:14:52;96289.50;;;13.95;61.71
73024;BME280;61199;47.526;8.538;2023-05-10T10:17:19;96287.91;;;14.02;61.83
73024;BME280;61199;47.526;8.538;2023-05-10T10:19:46;96296.94;;;14.00;61.08
73024;BME280;61199;47.526;8.538;2023-05-10T10:22:14;96297.97;;;14.07;61.11
73024;BME280;61199;47.526;8.538;2023-05-10T10:24:41;96291.38;;;14.11;61.43
73024;BME280;61199;47.526;8.538;2023-05-10T10:27:14;96284.88;;;14.31;61.46
73024;BME280;61199;47.526;8.538;2023-05-10T10:29:55;96287.06;;;14.51;59.45
73024;BME280;61199;47.526;8.538;2023-05-10T10:34:54;96284.00;;;14.72;60.41
73024;BME280;61199;47.526;8.538;2023-05-10T10:37:21;96290.53;;;14.60;60.09
73024;BME280;61199;47.526;8.538;2023-05-10T10:39:49;96289.56;;;14.53;60.17
73024;BME280;61199;47.526;8.538;2023-05-10T10:42:45;96290.41;;;14.77;59.67
73024;BME280;61199;47.526;8.538;2023-05-10T10:45:16;96275.25;;;14.79;58.63
73024;BME280;61199;47.526;8.538;2023-05-10T10:47:43;96278.34;;;14.43;59.61
73024;BME280;61199;47.526;8.538;2023-05-10T10:50:10;96275.22;;;14.55;59.78
73024;BME280;61199;47.526;8.538;2023-05-10T10:52:45;96306.72;;;14.73;59.24
73024;BME280;61199;47.526;8.538;2023-05-10T10:55:18;96293.03;;;14.61;60.13
73024;BME280;61199;47.526;8.538;2023-05-10T10:57:49;96277.38;;;14.75;60.30
73024;BME280;61199;47.526;8.538;2023-05-10T11:03:05;96272.78;;;15.01;58.77
73024;BME280;61199;47.526;8.538;2023-05-10T11:05:47;96280.03;;;15.23;58.11
73024;BME280;61199;47.526;8.538;2023-05-10T11:08:27;96276.75;;;14.89;58.72
73024;BME280;61199;47.526;8.538;2023-05-10T11:13:31;96277.25;;;14.93;59.61
73024;BME280;61199;47.526;8.538;2023-05-10T11:15:58;96274.91;;;14.66;60.89
73024;BME280;61199;47.526;8.538;2023-05-10T11:18:29;96276.91;;;14.96;60.63
73024;BME280;61199;47.526;8.538;2023-05-10T11:21:00;96267.84;;;15.30;59.17
73024;BME280;61199;47.526;8.538;2023-05-10T11:23:33;96265.69;;;15.50;58.11
73024;BME280;61199;47.526;8.538;2023-05-10T11:26:13;96271.13;;;15.24;59.29
73024;BME280;61199;47.526;8.538;2023-05-10T11:28:43;96259.25;;;15.52;58.72
73024;BME280;61199;47.526;8.538;2023-05-10T11:31:10;96269.31;;;15.49;57.00
73024;BME280;61199;47.526;8.538;2023-05-10T11:33:55;96268.16;;;15.03;55.41
73024;BME280;61199;47.526;8.538;2023-05-10T11:36:27;96264.53;;;15.04;56.10
73024;BME280;61199;47.526;8.538;2023-05-10T11:38:54;96265.53;;;15.27;55.83
73024;BME280;61199;47.526;8.538;2023-05-10T11:41:22;96262.91;;;15.35;55.25
73024;BME280;61199;47.526;8.538;2023-05-10T11:43:50;96264.81;;;15.57;54.47
73024;BME280;61199;47.526;8.538;2023-05-10T11:46:19;96275.41;;;15.41;55.18
73024;BME280;61199;47.526;8.538;2023-05-10T11:48:49;96272.28;;;15.06;56.18
73024;BME280;61199;47.526;8.538;2023-05-10T11:51:20;96269.97;;;15.27;56.57
73024;BME280;61199;47.526;8.538;2023-05-10T11:53:47;96256.44;;;15.30;56.11
73024;BME280;61199;47.526;8.538;2023-05-10T11:56:13;96264.34;;;15.38;55.92
73024;BME280;61199;47.526;8.538;2023-05-10T11:58:40;96262.88;;;15.19;56.16
73024;BME280;61199;47.526;8.538;2023-05-10T12:01:07;96267.19;;;15.44;56.72
73024;BME280;61199;47.526;8.538;2023-05-10T12:03:35;96268.81;;;15.53;56.20
73024;BME280;61199;47.526;8.538;2023-05-10T12:06:03;96267.97;;;15.45;53.87
73024;BME280;61199;47.526;8.538;2023-05-10T12:08:30;96268.16;;;15.19;54.32
73024;BME280;61199;47.526;8.538;2023-05-10T12:11:07;96260.41;;;15.42;54.70
73024;BME280;61199;47.526;8.538;2023-05-10T12:13:38;96259.66;;;15.72;54.53
73024;BME280;61199;47.526;8.538;2023-05-10T12:16:22;96265.09;;;15.78;54.12
73024;BME280;61199;47.526;8.538;2023-05-10T12:18:53;96263.66;;;15.60;53.43
73024;BME280;61199;47.526;8.538;2023-05-10T12:21:20;96263.16;;;15.72;53.30
73024;BME280;61199;47.526;8.538;2023-05-10T12:23:50;96274.25;;;15.44;55.01
73024;BME280;61199;47.526;8.538;2023-05-10T12:26:17;96256.53;;;15.68;54.33
73024;BME280;61199;47.526;8.538;2023-05-10T12:28:44;96263.75;;;15.90;53.90
73024;BME280;61199;47.526;8.538;2023-05-10T12:31:11;96261.63;;;15.86;53.44
73024;BME280;61199;47.526;8.538;2023-05-10T12:33:43;96262.91;;;15.90;53.21
73024;BME280;61199;47.526;8.538;2023-05-10T12:36:14;96258.44;;;15.98;54.25
73024;BME280;61199;47.526;8.538;2023-05-10T12:38:42;96252.72;;;16.17;53.44
73024;BME280;61199;47.526;8.538;2023-05-10T12:41:14;96257.69;;;16.12;52.44
73024;BME280;61199;47.526;8.538;2023-05-10T12:43:41;96259.47;;;15.81;52.76
73024;BME280;61199;47.526;8.538;2023-05-10T12:46:12;96252.13;;;16.07;52.54
73024;BME280;61199;47.526;8.538;2023-05-10T12:48:40;96251.09;;;16.16;52.35
73024;BME280;61199;47.526;8.538;2023-05-10T12:51:07;96250.91;;;16.18;52.81
73024;BME280;61199;47.526;8.538;2023-05-10T12:53:39;96245.75;;;16.55;52.33
73024;BME280;61199;47.526;8.538;2023-05-10T12:56:09;96246.66;;;16.70;51.90
73024;BME280;61199;47.526;8.538;2023-05-10T12:58:36;96242.13;;;16.78;51.86
73024;BME280;61199;47.526;8.538;2023-05-10T13:01:02;96243.31;;;16.98;51.11
73024;BME280;61199;47.526;8.538;2023-05-10T13:03:29;96246.09;;;17.19;50.65
73024;BME280;61199;47.526;8.538;2023-05-10T13:05:55;96243.75;;;16.79;50.24
73024;BME280;61199;47.526;8.538;2023-05-10T13:08:22;96244.53;;;16.65;50.83
73024;BME280;61199;47.526;8.538;2023-05-10T13:10:48;96253.94;;;16.68;49.97
73024;BME280;61199;47.526;8.538;2023-05-10T13:13:15;96251.03;;;16.24;51.26
73024;BME280;61199;47.526;8.538;2023-05-10T13:15:41;96236.16;;;16.23;51.45
73024;BME280;61199;47.526;8.538;2023-05-10T13:18:08;96252.28;;;16.44;50.20
73024;BME280;61199;47.526;8.538;2023-05-10T13:20:34;96238.81;;;16.23;49.88
73024;BME280;61199;47.526;8.538;2023-05-10T13:23:01;96254.03;;;16.21;50.62